sensor_id;sensor_type;location;lat;lon;timestamp;P1;durP1;ratioP1;P2;durP2;ratioP2
66472;SDS011;53291;51.680;8.344;2022-09-12T00:01:20;13.23;;;8.40;;
66472;SDS011;53291;51.680;8.344;2022-09-12T00:03:50;14.45;;;7.03;;
66472;SDS011;53291;51.680;8.344;2022-09-12T00:06:18;16.48;;;8.52;;
66472;SDS011;53291;51.680;8.344;2022-09-12T00:08:54;14.43;;;8.63;;
66472;SDS011;53291;51.680;8.344;2022-09-12T00:11:22;14.05;;;7.78;;
66472;SDS011;53291;51.680;8.344;2022-09-12T00:13:48;14.27;;;9.45;;
66472;SDS011;53291;51.680;8.344;2022-09-12T00:16:24;15.68;;;8.95;;
66472;SDS011;53291;51.680;8.344;2022-09-12T00:18:50;14.98;;;8.55;;
66472;SDS011;53291;51.680;8.344;2022-09-12T00:21:17;13.70;;;7.93;;
66472;SDS011;53291;51.680;8.344;2022-09-12T00:23:42;13.50;;;8.20;;
66472;SDS011;53291;51.680;8.344;2022-09-12T00:26:08;11.70;;;6.88;;
66472;SDS011;53291;51.680;8.344;2022-09-12T00:28:34;15.43;;;8.65;;
66472;SDS011;53291;51.680;8.344;2022-09-12T00:31:04;14.32;;;8.23;;
66472;SDS011;53291;51.680;8.344;2022-09-12T00:33:32;15.90;;;8.80;;
66472;SDS011;53291;51.680;8.344;2022-09-12T00:35:57;15.52;;;8.80;;
66472;SDS011;53291;51.680;8.344;2022-09-12T00:38:23;14.43;;;8.40;;
66472;SDS011;53291;51.680;8.344;2022-09-12T00:40:48;17.08;;;9.18;;
66472;SDS011;53291;51.680;8.344;2022-09-12T00:43:31;13.05;;;7.85;;
66472;SDS011;53291;51.680;8.344;2022-09-12T00:46:00;13.50;;;8.23;;
66472;SDS011;53291;51.680;8.344;2022-09-12T00:48:50;14.32;;;8.20;;
66472;SDS011;53291;51.680;8.344;2022-09-12T00:51:19;13.77;;;7.82;;
66472;SDS011;53291;51.680;8.344;2022-09-12T00:53:45;15.02;;;8.60;;
66472;SDS011;53291;51.680;8.344;2022-09-12T00:56:14;13.20;;;8.10;;
66472;SDS011;53291;51.680;8.344;2022-09-12T00:58:47;15.27;;;7.90;;
66472;SDS011;53291;51.680;8.344;2022-09-12T01:03:43;13.40;;;7.57;;
66472;SDS011;53291;51.680;8.344;2022-09-12T01:06:11;14.73;;;8.13;;
66472;SDS011;53291;51.680;8.344;2022-09-12T01:08:42;14.50;;;8.10;;
66472;SDS011;53291;51.680;8.344;2022-09-12T01:11:09;13.43;;;8.20;;
66472;SDS011;53291;51.680;8.344;2022-09-12T01:13:35;14.63;;;8.38;;
66472;SDS011;53291;51.680;8.344;2022-09-12T01:16:05;13.93;;;8.18;;
66472;SDS011;53291;51.680;8.344;2022-09-12T01:32:01;14.75;;;8.60;;
66472;SDS011;53291;51.680;8.344;2022-09-12T01:34:39;14.98;;;8.43;;
66472;SDS011;53291;51.680;8.344;2022-09-12T01:42:25;14.57;;;8.07;;
66472;SDS011;53291;51.680;8.344;2022-09-12T01:45:05;13.15;;;8.32;;
66472;SDS011;53291;51.680;8.344;2022-09-12T01:50:09;14.60;;;7.63;;
66472;SDS011;53291;51.680;8.344;2022-09-12T01:52:41;15.40;;;8.45;;
66472;SDS011;53291;51.680;8.344;2022-09-12T02:03:48;14.25;;;8.15;;
66472;SDS011;53291;51.680;8.344;2022-09-12T02:06:21;12.40;;;7.68;;
66472;SDS011;53291;51.680;8.344;2022-09-12T02:08:51;15.18;;;8.15;;
66472;SDS011;53291;51.680;8.344;2022-09-12T02:11:19;13.57;;;8.27;;
66472;SDS011;53291;51.680;8.344;2022-09-12T02:16:12;13.40;;;8.47;;
66472;SDS011;53291;51.680;8.344;2022-09-12T02:18:44;13.50;;;7.93;;
66472;SDS011;53291;51.680;8.344;2022-09-12T02:21:14;14.82;;;9.18;;
66472;SDS011;53291;51.680;8.344;2022-09-12T02:23:43;14.07;;;8.35;;
66472;SDS011;53291;51.680;8.344;2022-09-12T02:26:19;14.38;;;8.63;;
66472;SDS011;53291;51.680;8.344;2022-09-12T02:28:48;13.98;;;8.63;;
66472;SDS011;53291;51.680;8.344;2022-09-12T02:31:17;15.48;;;9.68;;
66472;SDS011;53291;51.680;8.344;2022-09-12T02:34:09;16.48;;;8.48;;
66472;SDS011;53291;51.680;8.344;2022-09-12T02:37:17;17.17;;;8.45;;
66472;SDS011;53291;51.680;8.344;2022-09-12T02:39:53;13.65;;;7.93;;
66472;SDS011;53291;51.680;8.344;2022-09-12T02:42:21;16.95;;;9.10;;
66472;SDS011;53291;51.680;8.344;2022-09-12T02:44:47;15.48;;;9.35;;
66472;SDS011;53291;51.680;8.344;2022-09-12T02:50:03;16.98;;;9.55;;
66472;SDS011;53291;51.680;8.344;2022-09-12T02:52:29;15.85;;;9.27;;
66472;SDS011;53291;51.680;8.344;2022-09-12T02:54:56;15.52;;;8.73;;
66472;SDS011;53291;51.680;8.344;2022-09-12T02:57:22;15.98;;;9.20;;
66472;SDS011;53291;51.680;8.344;2022-09-12T02:59:47;16.58;;;9.30;;
66472;SDS011;53291;51.680;8.344;2022-09-12T03:07:38;16.70;;;9.13;;
66472;SDS011;53291;51.680;8.344;2022-09-12T03:10:13;14.85;;;8.38;;
66472;SDS011;53291;51.680;8.344;2022-09-12T03:16:16;16.17;;;9.68;;
66472;SDS011;53291;51.680;8.344;2022-09-12T03:26:37;17.55;;;9.55;;
66472;SDS011;53291;51.680;8.344;2022-09-12T03:29:07;14.90;;;8.48;;
66472;SDS011;53291;51.680;8.344;2022-09-12T03:31:35;17.02;;;9.30;;
66472;SDS011;53291;51.680;8.344;2022-09-12T03:34:01;17.75;;;9.77;;
66472;SDS011;53291;51.680;8.344;2022-09-12T03:36:27;14.50;;;8.88;;
66472;SDS011;53291;51.680;8.344;2022-09-12T03:38:54;17.17;;;8.88;;
66472;SDS011;53291;51.680;8.344;2022-09-12T03:41:19;17.45;;;9.50;;
66472;SDS011;53291;51.680;8.344;2022-09-12T03:43:45;16.55;;;9.65;;
66472;SDS011;53291;51.680;8.344;2022-09-12T03:46:11;18.00;;;9.75;;
66472;SDS011;53291;51.680;8.344;2022-09-12T03:48:37;20.52;;;10.32;;
66472;SDS011;53291;51.680;8.344;2022-09-12T03:51:04;18.75;;;10.30;;
66472;SDS011;53291;51.680;8.344;2022-09-12T03:53:31;19.15;;;10.93;;
66472;SDS011;53291;51.680;8.344;2022-09-12T03:55:57;22.20;;;9.40;;
66472;SDS011;53291;51.680;8.344;2022-09-12T03:58:23;22.73;;;11.82;;
66472;SDS011;53291;51.680;8.344;2022-09-12T04:00:49;20.10;;;12.50;;
66472;SDS011;53291;51.680;8.344;2022-09-12T04:03:15;25.38;;;11.63;;
66472;SDS011;53291;51.680;8.344;2022-09-12T04:05:40;23.08;;;11.63;;
66472;SDS011;53291;51.680;8.344;2022-09-12T04:08:06;23.52;;;11.48;;
66472;SDS011;53291;51.680;8.344;2022-09-12T04:10:31;20.10;;;11.32;;
66472;SDS011;53291;51.680;8.344;2022-09-12T04:12:57;23.83;;;12.38;;
66472;SDS011;53291;51.680;8.344;2022-09-12T04:15:22;22.90;;;10.13;;
66472;SDS011;53291;51.680;8.344;2022-09-12T04:17:48;20.95;;;10.90;;
66472;SDS011;53291;51.680;8.344;2022-09-12T04:20:13;21.50;;;12.13;;
66472;SDS011;53291;51.680;8.344;2022-09-12T04:22:38;24.27;;;11.75;;
66472;SDS011;53291;51.680;8.344;2022-09-12T04:25:04;22.42;;;12.00;;
66472;SDS011;53291;51.680;8.344;2022-09-12T04:27:30;23.80;;;11.00;;
66472;SDS011;53291;51.680;8.344;2022-09-12T04:29:55;21.90;;;10.67;;
66472;SDS011;53291;51.680;8.344;2022-09-12T04:32:21;22.98;;;11.95;;
66472;SDS011;53291;51.680;8.344;2022-09-12T04:34:47;24.40;;;12.15;;
66472;SDS011;53291;51.680;8.344;2022-09-12T04:37:12;27.15;;;12.25;;
66472;SDS011;53291;51.680;8.344;2022-09-12T04:39:38;25.85;;;13.45;;
66472;SDS011;53291;51.680;8.344;2022-09-12T04:42:03;25.67;;;12.23;;
66472;SDS011;53291;51.680;8.344;2022-09-12T04:44:29;24.77;;;10.60;;
66472;SDS011;53291;51.680;8.344;2022-09-12T04:46:54;25.38;;;12.43;;
66472;SDS011;53291;51.680;8.344;2022-09-12T04:49:20;23.45;;;11.85;;
66472;SDS011;53291;51.680;8.344;2022-09-12T04:51:45;23.47;;;10.87;;
66472;SDS011;53291;51.680;8.344;2022-09-12T04:54:14;21.65;;;11.90;;
66472;SDS011;53291;51.680;8.344;2022-09-12T04:56:42;23.10;;;12.73;;
66472;SDS011;53291;51.680;8.344;2022-09-12T04:59:12;24.45;;;12.82;;
66472;SDS011;53291;51.680;8.344;2022-09-12T05:01:39;22.33;;;11.13;;
66472;SDS011;53291;51.680;8.344;2022-09-12T05:04:05;20.25;;;10.73;;
66472;SDS011;53291;51.680;8.344;2022-09-12T05:06:31;22.45;;;11.10;;
66472;SDS011;53291;51.680;8.344;2022-09-12T05:08:59;19.90;;;10.20;;
66472;SDS011;53291;51.680;8.344;2022-09-12T05:11:27;21.20;;;10.80;;
66472;SDS011;53291;51.680;8.344;2022-09-12T05:13:57;20.52;;;11.00;;
66472;SDS011;53291;51.680;8.344;2022-09-12T05:16:25;19.70;;;10.40;;
66472;SDS011;53291;51.680;8.344;2022-09-12T05:18:52;18.65;;;10.93;;
66472;SDS011;53291;51.680;8.344;2022-09-12T05:21:19;19.25;;;10.35;;
66472;SDS011;53291;51.680;8.344;2022-09-12T05:23:49;19.55;;;10.45;;
66472;SDS011;53291;51.680;8.344;2022-09-12T05:26:18;19.73;;;10.05;;
66472;SDS011;53291;51.680;8.344;2022-09-12T05:28:45;18.20;;;10.00;;
66472;SDS011;53291;51.680;8.344;2022-09-12T05:31:22;19.55;;;10.77;;
66472;SDS011;53291;51.680;8.344;2022-09-12T05:33:50;17.67;;;10.00;;
66472;SDS011;53291;51.680;8.344;2022-09-12T05:36:19;19.70;;;10.23;;
66472;SDS011;53291;51.680;8.344;2022-09-12T05:38:46;18.20;;;10.02;;
66472;SDS011;53291;51.680;8.344;2022-09-12T05:41:13;20.13;;;10.60;;
66472;SDS011;53291;51.680;8.344;2022-09-12T05:43:43;18.25;;;9.15;;
66472;SDS011;53291;51.680;8.344;2022-09-12T05:46:11;18.60;;;10.43;;
66472;SDS011;53291;51.680;8.344;2022-09-12T05:48:39;19.13;;;10.52;;
66472;SDS011;53291;51.680;8.344;2022-09-12T05:51:07;19.52;;;10.23;;
66472;SDS011;53291;51.680;8.344;2022-09-12T05:53:37;18.08;;;10.65;;
66472;SDS011;53291;51.680;8.344;2022-09-12T05:56:05;19.42;;;10.50;;
66472;SDS011;53291;51.680;8.344;2022-09-12T05:58:33;17.48;;;9.75;;
66472;SDS011;53291;51.680;8.344;2022-09-12T06:01:00;17.42;;;9.80;;
66472;SDS011;53291;51.680;8.344;2022-09-12T06:03:32;18.48;;;10.88;;
66472;SDS011;53291;51.680;8.344;2022-09-12T06:06:08;20.38;;;10.43;;
66472;SDS011;53291;51.680;8.344;2022-09-12T06:08:38;20.65;;;10.68;;
66472;SDS011;53291;51.680;8.344;2022-09-12T06:11:05;19.90;;;11.52;;
66472;SDS011;53291;51.680;8.344;2022-09-12T06:13:33;20.35;;;10.90;;
66472;SDS011;53291;51.680;8.344;2022-09-12T06:16:04;18.63;;;10.77;;
66472;SDS011;53291;51.680;8.344;2022-09-12T06:18:40;17.92;;;10.85;;
66472;SDS011;53291;51.680;8.344;2022-09-12T06:21:07;16.73;;;9.05;;
66472;SDS011;53291;51.680;8.344;2022-09-12T06:23:35;17.23;;;11.07;;
66472;SDS011;53291;51.680;8.344;2022-09-12T06:26:00;16.25;;;10.02;;
66472;SDS011;53291;51.680;8.344;2022-09-12T06:28:26;17.33;;;10.68;;
66472;SDS011;53291;51.680;8.344;2022-09-12T06:30:52;18.98;;;9.95;;
66472;SDS011;53291;51.680;8.344;2022-09-12T06:33:18;19.42;;;11.15;;
66472;SDS011;53291;51.680;8.344;2022-09-12T06:35:43;15.88;;;10.07;;
66472;SDS011;53291;51.680;8.344;2022-09-12T06:38:09;18.85;;;10.63;;
66472;SDS011;53291;51.680;8.344;2022-09-12T06:40:39;17.40;;;9.93;;
66472;SDS011;53291;51.680;8.344;2022-09-12T06:43:07;19.15;;;10.00;;
66472;SDS011;53291;51.680;8.344;2022-09-12T06:45:33;17.35;;;9.73;;
66472;SDS011;53291;51.680;8.344;2022-09-12T06:47:59;18.20;;;9.80;;
66472;SDS011;53291;51.680;8.344;2022-09-12T06:50:24;18.23;;;10.40;;
66472;SDS011;53291;51.680;8.344;2022-09-12T06:52:49;15.47;;;9.40;;
66472;SDS011;53291;51.680;8.344;2022-09-12T06:55:15;16.45;;;9.55;;
66472;SDS011;53291;51.680;8.344;2022-09-12T06:57:41;16.65;;;10.50;;
66472;SDS011;53291;51.680;8.344;2022-09-12T07:00:06;16.87;;;9.57;;
66472;SDS011;53291;51.680;8.344;2022-09-12T07:02:32;15.35;;;9.70;;
66472;SDS011;53291;51.680;8.344;2022-09-12T07:04:57;15.98;;;9.88;;
66472;SDS011;53291;51.680;8.344;2022-09-12T07:07:22;15.73;;;9.50;;
66472;SDS011;53291;51.680;8.344;2022-09-12T07:09:48;13.80;;;8.50;;
66472;SDS011;53291;51.680;8.344;2022-09-12T07:12:14;15.25;;;8.90;;
66472;SDS011;53291;51.680;8.344;2022-09-12T07:14:40;14.80;;;7.55;;
66472;SDS011;53291;51.680;8.344;2022-09-12T07:17:05;13.15;;;8.25;;
66472;SDS011;53291;51.680;8.344;2022-09-12T07:19:32;13.48;;;7.75;;
66472;SDS011;53291;51.680;8.344;2022-09-12T07:21:58;12.50;;;8.05;;
66472;SDS011;53291;51.680;8.344;2022-09-12T07:24:23;12.82;;;9.20;;
66472;SDS011;53291;51.680;8.344;2022-09-12T07:26:48;10.10;;;7.30;;
66472;SDS011;53291;51.680;8.344;2022-09-12T07:29:14;11.30;;;7.87;;
66472;SDS011;53291;51.680;8.344;2022-09-12T07:31:40;10.63;;;7.10;;
66472;SDS011;53291;51.680;8.344;2022-09-12T07:34:06;12.48;;;8.07;;
66472;SDS011;53291;51.680;8.344;2022-09-12T07:36:32;10.50;;;6.70;;
66472;SDS011;53291;51.680;8.344;2022-09-12T07:38:58;11.95;;;6.53;;
66472;SDS011;53291;51.680;8.344;2022-09-12T07:41:24;9.50;;;5.88;;
66472;SDS011;53291;51.680;8.344;2022-09-12T07:43:55;8.40;;;5.88;;
66472;SDS011;53291;51.680;8.344;2022-09-12T07:46:22;8.20;;;6.05;;
66472;SDS011;53291;51.680;8.344;2022-09-12T07:48:52;8.85;;;6.28;;
66472;SDS011;53291;51.680;8.344;2022-09-12T07:51:18;9.93;;;5.88;;
66472;SDS011;53291;51.680;8.344;2022-09-12T07:53:44;8.68;;;5.65;;
66472;SDS011;53291;51.680;8.344;2022-09-12T07:56:10;8.95;;;5.72;;
66472;SDS011;53291;51.680;8.344;2022-09-12T07:58:37;8.50;;;6.10;;
66472;SDS011;53291;51.680;8.344;2022-09-12T08:01:04;8.90;;;5.80;;
66472;SDS011;53291;51.680;8.344;2022-09-12T08:03:38;8.02;;;4.70;;
66472;SDS011;53291;51.680;8.344;2022-09-12T08:06:10;10.18;;;4.85;;
66472;SDS011;53291;51.680;8.344;2022-09-12T08:08:48;8.85;;;5.80;;
66472;SDS011;53291;51.680;8.344;2022-09-12T08:11:15;9.40;;;6.32;;
66472;SDS011;53291;51.680;8.344;2022-09-12T08:13:42;9.05;;;5.55;;
66472;SDS011;53291;51.680;8.344;2022-09-12T08:16:11;10.40;;;5.45;;
66472;SDS011;53291;51.680;8.344;2022-09-12T08:18:38;6.78;;;4.80;;
66472;SDS011;53291;51.680;8.344;2022-09-12T08:21:06;9.13;;;5.50;;
66472;SDS011;53291;51.680;8.344;2022-09-12T08:23:34;8.48;;;5.57;;
66472;SDS011;53291;51.680;8.344;2022-09-12T08:26:00;10.55;;;6.32;;
66472;SDS011;53291;51.680;8.344;2022-09-12T08:28:30;9.93;;;5.80;;
66472;SDS011;53291;51.680;8.344;2022-09-12T08:31:00;8.18;;;5.00;;
66472;SDS011;53291;51.680;8.344;2022-09-12T08:33:27;8.13;;;4.50;;
66472;SDS011;53291;51.680;8.344;2022-09-12T08:38:34;6.68;;;4.18;;
66472;SDS011;53291;51.680;8.344;2022-09-12T08:41:46;9.02;;;4.13;;
66472;SDS011;53291;51.680;8.344;2022-09-12T08:43:55;8.07;;;3.78;;
66472;SDS011;53291;51.680;8.344;2022-09-12T08:46:28;8.07;;;5.40;;
66472;SDS011;53291;51.680;8.344;2022-09-12T08:48:59;6.45;;;3.95;;
66472;SDS011;53291;51.680;8.344;2022-09-12T08:51:27;7.05;;;4.78;;
66472;SDS011;53291;51.680;8.344;2022-09-12T08:53:57;7.22;;;4.00;;
66472;SDS011;53291;51.680;8.344;2022-09-12T08:56:24;7.85;;;4.28;;
66472;SDS011;53291;51.680;8.344;2022-09-12T08:58:53;9.70;;;4.72;;
66472;SDS011;53291;51.680;8.344;2022-09-12T09:01:51;8.13;;;4.30;;
66472;SDS011;53291;51.680;8.344;2022-09-12T09:06:57;8.27;;;4.72;;
66472;SDS011;53291;51.680;8.344;2022-09-12T09:18:15;9.38;;;5.25;;
66472;SDS011;53291;51.680;8.344;2022-09-12T09:20:48;8.07;;;4.35;;
66472;SDS011;53291;51.680;8.344;2022-09-12T09:28:45;10.70;;;4.72;;
66472;SDS011;53291;51.680;8.344;2022-09-12T09:31:14;8.35;;;4.07;;
66472;SDS011;53291;51.680;8.344;2022-09-12T09:33:40;7.28;;;4.82;;
66472;SDS011;53291;51.680;8.344;2022-09-12T09:44:29;10.25;;;4.68;;
66472;SDS011;53291;51.680;8.344;2022-09-12T09:46:56;9.18;;;5.47;;
66472;SDS011;53291;51.680;8.344;2022-09-12T09:49:25;7.53;;;4.45;;
66472;SDS011;53291;51.680;8.344;2022-09-12T09:51:54;7.70;;;4.10;;
66472;SDS011;53291;51.680;8.344;2022-09-12T09:54:25;7.03;;;4.75;;
66472;SDS011;53291;51.680;8.344;2022-09-12T09:57:02;8.30;;;4.50;;
66472;SDS011;53291;51.680;8.344;2022-09-12T09:59:32;8.65;;;5.60;;
66472;SDS011;53291;51.680;8.344;2022-09-12T10:04:38;8.30;;;5.57;;
66472;SDS011;53291;51.680;8.344;2022-09-12T10:07:06;7.32;;;5.47;;
66472;SDS011;53291;51.680;8.344;2022-09-12T10:09:44;9.43;;;5.45;;
66472;SDS011;53291;51.680;8.344;2022-09-12T10:12:47;8.93;;;5.03;;
66472;SDS011;53291;51.680;8.344;2022-09-12T10:15:18;8.88;;;4.63;;
66472;SDS011;53291;51.680;8.344;2022-09-12T10:17:45;9.40;;;4.75;;
66472;SDS011;53291;51.680;8.344;2022-09-12T10:23:28;7.78;;;4.90;;
66472;SDS011;53291;51.680;8.344;2022-09-12T10:26:09;8.02;;;5.28;;
66472;SDS011;53291;51.680;8.344;2022-09-12T10:28:40;8.38;;;5.68;;
66472;SDS011;53291;51.680;8.344;2022-09-12T10:31:09;8.00;;;5.57;;
66472;SDS011;53291;51.680;8.344;2022-09-12T10:33:41;8.55;;;4.32;;
66472;SDS011;53291;51.680;8.344;2022-09-12T10:36:09;7.13;;;4.50;;
66472;SDS011;53291;51.680;8.344;2022-09-12T10:38:35;7.85;;;5.00;;
66472;SDS011;53291;51.680;8.344;2022-09-12T10:49:11;7.95;;;5.45;;
66472;SDS011;53291;51.680;8.344;2022-09-12T10:51:48;8.20;;;5.20;;
66472;SDS011;53291;51.680;8.344;2022-09-12T10:54:15;8.40;;;4.80;;
66472;SDS011;53291;51.680;8.344;2022-09-12T11:16:13;6.65;;;4.88;;
66472;SDS011;53291;51.680;8.344;2022-09-12T11:27:34;8.65;;;4.30;;
66472;SDS011;53291;51.680;8.344;2022-09-12T11:30:15;7.30;;;4.50;;
66472;SDS011;53291;51.680;8.344;2022-09-12T11:51:18;4.45;;;3.53;;
66472;SDS011;53291;51.680;8.344;2022-09-12T11:53:53;5.97;;;4.30;;
66472;SDS011;53291;51.680;8.344;2022-09-12T11:56:24;6.20;;;3.60;;
66472;SDS011;53291;51.680;8.344;2022-09-12T11:59:02;6.50;;;4.18;;
66472;SDS011;53291;51.680;8.344;2022-09-12T12:01:40;4.57;;;2.90;;
66472;SDS011;53291;51.680;8.344;2022-09-12T12:04:10;5.82;;;3.05;;
66472;SDS011;53291;51.680;8.344;2022-09-12T12:09:08;5.50;;;2.92;;
66472;SDS011;53291;51.680;8.344;2022-09-12T12:11:37;4.75;;;3.53;;
66472;SDS011;53291;51.680;8.344;2022-09-12T12:16:37;5.28;;;2.72;;
66472;SDS011;53291;51.680;8.344;2022-09-12T12:19:05;5.55;;;2.58;;
66472;SDS011;53291;51.680;8.344;2022-09-12T12:21:50;5.70;;;3.78;;
66472;SDS011;53291;51.680;8.344;2022-09-12T12:24:20;5.32;;;3.95;;
66472;SDS011;53291;51.680;8.344;2022-09-12T12:26:57;6.10;;;2.72;;
66472;SDS011;53291;51.680;8.344;2022-09-12T12:34:34;6.03;;;3.33;;
66472;SDS011;53291;51.680;8.344;2022-09-12T12:43:26;5.28;;;2.75;;
66472;SDS011;53291;51.680;8.344;2022-09-12T12:47:45;8.05;;;3.33;;
66472;SDS011;53291;51.680;8.344;2022-09-12T12:53:03;6.55;;;4.22;;
66472;SDS011;53291;51.680;8.344;2022-09-12T12:55:31;6.35;;;4.15;;
66472;SDS011;53291;51.680;8.344;2022-09-12T12:58:01;6.85;;;3.38;;
66472;SDS011;53291;51.680;8.344;2022-09-12T13:05:46;5.63;;;3.38;;
66472;SDS011;53291;51.680;8.344;2022-09-12T13:10:51;5.32;;;2.30;;
66472;SDS011;53291;51.680;8.344;2022-09-12T13:13:28;5.40;;;2.80;;
66472;SDS011;53291;51.680;8.344;2022-09-12T13:16:02;4.88;;;2.85;;
66472;SDS011;53291;51.680;8.344;2022-09-12T13:18:28;3.75;;;2.97;;
66472;SDS011;53291;51.680;8.344;2022-09-12T13:21:07;4.15;;;2.30;;
66472;SDS011;53291;51.680;8.344;2022-09-12T13:23:36;5.22;;;2.53;;
66472;SDS011;53291;51.680;8.344;2022-09-12T13:26:03;4.28;;;2.85;;
66472;SDS011;53291;51.680;8.344;2022-09-12T13:28:34;4.15;;;2.10;;
66472;SDS011;53291;51.680;8.344;2022-09-12T13:31:10;5.30;;;3.25;;
66472;SDS011;53291;51.680;8.344;2022-09-12T13:33:42;5.30;;;2.50;;
66472;SDS011;53291;51.680;8.344;2022-09-12T13:44:36;4.72;;;2.88;;
66472;SDS011;53291;51.680;8.344;2022-09-12T13:47:09;4.20;;;3.28;;
66472;SDS011;53291;51.680;8.344;2022-09-12T13:49:40;4.10;;;2.10;;
66472;SDS011;53291;51.680;8.344;2022-09-12T13:52:08;4.20;;;2.40;;
66472;SDS011;53291;51.680;8.344;2022-09-12T13:54:41;4.57;;;3.05;;
66472;SDS011;53291;51.680;8.344;2022-09-12T13:57:25;5.05;;;3.35;;
66472;SDS011;53291;51.680;8.344;2022-09-12T13:59:56;3.90;;;2.35;;
66472;SDS011;53291;51.680;8.344;2022-09-12T14:02:23;3.10;;;1.83;;
66472;SDS011;53291;51.680;8.344;2022-09-12T14:04:51;4.55;;;2.30;;
66472;SDS011;53291;51.680;8.344;2022-09-12T14:07:36;3.78;;;2.13;;
66472;SDS011;53291;51.680;8.344;2022-09-12T14:13:12;3.78;;;2.80;;
66472;SDS011;53291;51.680;8.344;2022-09-12T14:15:46;3.72;;;2.03;;
66472;SDS011;53291;51.680;8.344;2022-09-12T14:18:26;3.35;;;1.70;;
66472;SDS011;53291;51.680;8.344;2022-09-12T14:20:53;3.53;;;2.42;;
66472;SDS011;53291;51.680;8.344;2022-09-12T14:25:51;4.18;;;2.38;;
66472;SDS011;53291;51.680;8.344;2022-09-12T14:28:18;3.45;;;2.97;;
66472;SDS011;53291;51.680;8.344;2022-09-12T14:31:06;2.78;;;2.30;;
66472;SDS011;53291;51.680;8.344;2022-09-12T14:33:53;3.33;;;2.50;;
66472;SDS011;53291;51.680;8.344;2022-09-12T14:36:24;3.03;;;2.10;;
66472;SDS011;53291;51.680;8.344;2022-09-12T14:39:03;3.60;;;2.60;;
66472;SDS011;53291;51.680;8.344;2022-09-12T14:41:38;3.72;;;2.83;;
66472;SDS011;53291;51.680;8.344;2022-09-12T14:44:06;3.80;;;2.70;;
66472;SDS011;53291;51.680;8.344;2022-09-12T14:49:06;4.47;;;3.08;;
66472;SDS011;53291;51.680;8.344;2022-09-12T14:51:37;4.32;;;2.80;;
66472;SDS011;53291;51.680;8.344;2022-09-12T14:54:05;3.25;;;2.53;;
66472;SDS011;53291;51.680;8.344;2022-09-12T14:56:40;3.88;;;2.83;;
66472;SDS011;53291;51.680;8.344;2022-09-12T14:59:24;4.45;;;2.97;;
66472;SDS011;53291;51.680;8.344;2022-09-12T15:04:44;3.10;;;1.60;;
66472;SDS011;53291;51.680;8.344;2022-09-12T15:07:31;3.38;;;2.90;;
66472;SDS011;53291;51.680;8.344;2022-09-12T15:09:59;4.70;;;2.90;;
66472;SDS011;53291;51.680;8.344;2022-09-12T15:12:27;4.75;;;2.38;;
66472;SDS011;53291;51.680;8.344;2022-09-12T15:14:53;4.13;;;2.08;;
66472;SDS011;53291;51.680;8.344;2022-09-12T15:17:23;4.82;;;2.20;;
66472;SDS011;53291;51.680;8.344;2022-09-12T15:19:49;3.78;;;2.85;;
66472;SDS011;53291;51.680;8.344;2022-09-12T15:22:14;4.50;;;3.27;;
66472;SDS011;53291;51.680;8.344;2022-09-12T15:24:40;3.45;;;2.22;;
66472;SDS011;53291;51.680;8.344;2022-09-12T15:27:09;4.18;;;1.90;;
66472;SDS011;53291;51.680;8.344;2022-09-12T15:29:36;4.53;;;3.05;;
66472;SDS011;53291;51.680;8.344;2022-09-12T15:32:01;3.47;;;2.10;;
66472;SDS011;53291;51.680;8.344;2022-09-12T15:34:26;4.50;;;2.75;;
66472;SDS011;53291;51.680;8.344;2022-09-12T15:36:52;4.32;;;2.75;;
66472;SDS011;53291;51.680;8.344;2022-09-12T15:39:17;4.53;;;2.73;;
66472;SDS011;53291;51.680;8.344;2022-09-12T15:41:42;3.93;;;2.30;;
66472;SDS011;53291;51.680;8.344;2022-09-12T15:44:11;3.92;;;2.05;;
66472;SDS011;53291;51.680;8.344;2022-09-12T15:46:38;4.25;;;3.03;;
66472;SDS011;53291;51.680;8.344;2022-09-12T15:49:03;4.00;;;3.25;;
66472;SDS011;53291;51.680;8.344;2022-09-12T15:51:28;4.57;;;2.47;;
66472;SDS011;53291;51.680;8.344;2022-09-12T15:53:54;4.53;;;2.83;;
66472;SDS011;53291;51.680;8.344;2022-09-12T15:56:20;4.60;;;2.20;;
66472;SDS011;53291;51.680;8.344;2022-09-12T15:58:46;4.95;;;2.47;;
66472;SDS011;53291;51.680;8.344;2022-09-12T16:01:13;3.83;;;2.38;;
66472;SDS011;53291;51.680;8.344;2022-09-12T16:03:39;4.50;;;2.60;;
66472;SDS011;53291;51.680;8.344;2022-09-12T16:06:05;4.40;;;2.45;;
66472;SDS011;53291;51.680;8.344;2022-09-12T16:08:32;4.78;;;3.42;;
66472;SDS011;53291;51.680;8.344;2022-09-12T16:11:06;4.60;;;2.58;;
66472;SDS011;53291;51.680;8.344;2022-09-12T16:13:36;5.22;;;3.35;;
66472;SDS011;53291;51.680;8.344;2022-09-12T16:16:01;5.70;;;3.70;;
66472;SDS011;53291;51.680;8.344;2022-09-12T16:18:27;4.65;;;2.80;;
66472;SDS011;53291;51.680;8.344;2022-09-12T16:20:53;4.45;;;2.40;;
66472;SDS011;53291;51.680;8.344;2022-09-12T16:23:38;5.22;;;2.42;;
66472;SDS011;53291;51.680;8.344;2022-09-12T16:26:06;3.90;;;2.55;;
66472;SDS011;53291;51.680;8.344;2022-09-12T16:28:33;4.38;;;2.58;;
66472;SDS011;53291;51.680;8.344;2022-09-12T16:31:00;4.57;;;2.80;;
66472;SDS011;53291;51.680;8.344;2022-09-12T16:33:27;4.18;;;2.63;;
66472;SDS011;53291;51.680;8.344;2022-09-12T16:35:59;5.10;;;3.80;;
66472;SDS011;53291;51.680;8.344;2022-09-12T16:38:29;5.43;;;4.40;;
66472;SDS011;53291;51.680;8.344;2022-09-12T16:41:01;5.22;;;3.88;;
66472;SDS011;53291;51.680;8.344;2022-09-12T16:43:28;7.15;;;5.05;;
66472;SDS011;53291;51.680;8.344;2022-09-12T16:46:04;6.07;;;4.25;;
66472;SDS011;53291;51.680;8.344;2022-09-12T16:48:30;7.82;;;3.42;;
66472;SDS011;53291;51.680;8.344;2022-09-12T16:50:59;8.73;;;4.78;;
66472;SDS011;53291;51.680;8.344;2022-09-12T16:53:28;6.25;;;4.28;;
66472;SDS011;53291;51.680;8.344;2022-09-12T16:55:54;5.70;;;3.63;;
66472;SDS011;53291;51.680;8.344;2022-09-12T16:58:19;5.00;;;4.22;;
66472;SDS011;53291;51.680;8.344;2022-09-12T17:00:44;5.15;;;3.67;;
66472;SDS011;53291;51.680;8.344;2022-09-12T17:03:10;4.72;;;2.55;;
66472;SDS011;53291;51.680;8.344;2022-09-12T17:05:36;4.30;;;2.72;;
66472;SDS011;53291;51.680;8.344;2022-09-12T17:08:01;4.57;;;2.65;;
66472;SDS011;53291;51.680;8.344;2022-09-12T17:10:27;5.15;;;3.65;;
66472;SDS011;53291;51.680;8.344;2022-09-12T17:12:54;4.53;;;3.33;;
66472;SDS011;53291;51.680;8.344;2022-09-12T17:15:20;5.00;;;2.28;;
66472;SDS011;53291;51.680;8.344;2022-09-12T17:17:46;4.07;;;2.63;;
66472;SDS011;53291;51.680;8.344;2022-09-12T17:20:11;4.70;;;3.33;;
66472;SDS011;53291;51.680;8.344;2022-09-12T17:22:36;4.20;;;2.63;;
66472;SDS011;53291;51.680;8.344;2022-09-12T17:25:02;4.78;;;3.53;;
66472;SDS011;53291;51.680;8.344;2022-09-12T17:27:27;5.55;;;2.78;;
66472;SDS011;53291;51.680;8.344;2022-09-12T17:29:53;4.97;;;3.47;;
66472;SDS011;53291;51.680;8.344;2022-09-12T17:32:18;5.07;;;2.50;;
66472;SDS011;53291;51.680;8.344;2022-09-12T17:34:43;4.95;;;3.50;;
66472;SDS011;53291;51.680;8.344;2022-09-12T17:37:08;4.03;;;2.50;;
66472;SDS011;53291;51.680;8.344;2022-09-12T17:39:34;4.30;;;2.95;;
66472;SDS011;53291;51.680;8.344;2022-09-12T17:41:59;4.50;;;3.40;;
66472;SDS011;53291;51.680;8.344;2022-09-12T17:44:25;4.40;;;2.50;;
66472;SDS011;53291;51.680;8.344;2022-09-12T17:46:53;4.82;;;3.50;;
66472;SDS011;53291;51.680;8.344;2022-09-12T17:49:18;4.88;;;3.08;;
66472;SDS011;53291;51.680;8.344;2022-09-12T17:51:46;4.32;;;2.75;;
66472;SDS011;53291;51.680;8.344;2022-09-12T17:54:12;4.93;;;2.92;;
66472;SDS011;53291;51.680;8.344;2022-09-12T17:56:43;4.05;;;3.15;;
66472;SDS011;53291;51.680;8.344;2022-09-12T17:59:12;5.82;;;3.47;;
66472;SDS011;53291;51.680;8.344;2022-09-12T18:01:39;4.78;;;2.58;;